createdAt,value
2023-01-10T00:02:06.843Z,150.10
2023-01-10T00:04:35.731Z,145.18
2023-01-10T00:07:04.969Z,144.43
2023-01-10T00:09:33.896Z,147.65
2023-01-10T00:12:20.727Z,144.50
2023-01-10T00:14:49.538Z,140.15
2023-01-10T00:17:19.881Z,147.65
2023-01-10T00:19:49.022Z,149.45
2023-01-10T00:22:20.629Z,146.43
2023-01-10T00:24:49.910Z,145.63
2023-01-10T00:27:23.741Z,147.15
2023-01-10T00:29:56.927Z,143.45
2023-01-10T00:32:25.940Z,143.95
2023-01-10T00:34:54.863Z,141.23
2023-01-10T00:37:23.684Z,139.02
2023-01-10T00:39:52.770Z,144.80
2023-01-10T00:42:40.188Z,143.25
2023-01-10T00:45:10.003Z,139.63
2023-01-10T00:47:39.487Z,141.93
2023-01-10T00:50:09.514Z,144.98
2023-01-10T00:52:38.831Z,138.43
2023-01-10T00:55:08.767Z,138.75
2023-01-10T00:57:37.916Z,143.70
2023-01-10T01:00:11.676Z,143.57
2023-01-10T01:02:41.923Z,152.23
2023-01-10T01:05:12.781Z,152.15
2023-01-10T01:07:43.533Z,150.32
2023-01-10T01:10:29.518Z,147.65
2023-01-10T01:13:21.831Z,147.02
2023-01-10T01:15:52.982Z,144.23
2023-01-10T01:18:23.878Z,146.43
2023-01-10T01:20:59.579Z,160.15
2023-01-10T01:23:30.400Z,174.07
2023-01-10T01:26:01.494Z,192.55
2023-01-10T01:28:31.855Z,200.80
2023-01-10T01:31:09.013Z,198.27
2023-01-10T01:33:39.621Z,204.70
2023-01-10T01:36:13.863Z,196.35
2023-01-10T01:38:44.390Z,191.90
2023-01-10T01:41:33.090Z,188.70
2023-01-10T01:44:12.541Z,201.55
2023-01-10T01:46:46.498Z,194.57
2023-01-10T01:49:22.635Z,201.93
2023-01-10T01:52:03.438Z,204.82
2023-01-10T01:54:35.115Z,198.85
2023-01-10T01:57:14.836Z,203.88
2023-01-10T01:59:49.436Z,210.88
2023-01-10T02:02:25.380Z,207.57
2023-01-10T02:05:16.924Z,216.77
2023-01-10T02:07:51.795Z,206.10
2023-01-10T02:10:47.780Z,210.93
2023-01-10T02:13:21.014Z,214.77
2023-01-10T02:15:52.033Z,218.93
2023-01-10T02:18:24.498Z,218.85
2023-01-10T02:21:18.749Z,221.05
2023-01-10T02:24:26.271Z,225.65
2023-01-10T02:27:24.685Z,222.70
2023-01-10T02:30:28.854Z,229.90
2023-01-10T02:33:31.010Z,217.75
2023-01-10T02:36:22.981Z,221.40
2023-01-10T02:39:18.570Z,218.57
2023-01-10T02:42:17.372Z,223.27
2023-01-10T02:44:56.843Z,217.98
2023-01-10T02:47:27.438Z,219.30
2023-01-10T02:49:57.575Z,228.98
2023-01-10T02:52:32.622Z,240.45
2023-01-10T02:55:05.256Z,234.35
2023-01-10T02:57:38.728Z,248.43
2023-01-10T03:00:24.170Z,235.75
2023-01-10T03:03:12.507Z,246.00
2023-01-10T03:05:42.641Z,246.25
2023-01-10T03:08:42.105Z,253.52
2023-01-10T03:11:13.609Z,240.65
2023-01-10T03:14:18.747Z,244.63
2023-01-10T03:17:04.578Z,238.55
2023-01-10T03:19:41.241Z,240.52
2023-01-10T03:22:13.687Z,242.27
2023-01-10T03:25:05.451Z,245.25
2023-01-10T03:28:18.062Z,243.07
2023-01-10T03:30:52.343Z,250.60
2023-01-10T03:33:33.579Z,249.35
2023-01-10T03:36:32.685Z,242.10
2023-01-10T03:39:21.012Z,249.45
2023-01-10T03:42:11.568Z,242.55
2023-01-10T03:45:06.660Z,247.60
2023-01-10T03:47:46.880Z,252.23
2023-01-10T03:50:20.311Z,259.05
2023-01-10T03:52:50.910Z,269.60
2023-01-10T03:55:24.987Z,266.60
2023-01-10T03:57:55.399Z,266.85
2023-01-10T04:00:26.253Z,278.88
2023-01-10T04:02:57.501Z,270.63
2023-01-10T04:05:28.436Z,273.95
2023-01-10T04:07:58.388Z,274.23
2023-01-10T04:10:28.655Z,274.65
2023-01-10T04:13:05.193Z,270.20
2023-01-10T04:15:35.721Z,266.90
2023-01-10T04:18:06.359Z,265.40
2023-01-10T04:20:36.978Z,261.65
2023-01-10T04:23:07.575Z,251.27
2023-01-10T04:25:38.425Z,252.95
2023-01-10T04:28:09.206Z,254.32
2023-01-10T04:30:40.558Z,258.05
2023-01-10T04:33:13.036Z,269.05
2023-01-10T04:35:42.701Z,271.73
2023-01-10T04:38:11.603Z,265.42
2023-01-10T04:40:40.815Z,278.80
2023-01-10T04:43:10.113Z,277.80
2023-01-10T04:45:39.505Z,273.02
2023-01-10T04:48:08.979Z,272.58
2023-01-10T04:50:38.179Z,282.52
2023-01-10T04:53:07.058Z,283.60
2023-01-10T04:55:36.482Z,286.38
2023-01-10T04:58:06.097Z,282.88
2023-01-10T05:00:35.024Z,290.45
2023-01-10T05:03:04.300Z,287.67
2023-01-10T05:05:33.941Z,293.88
2023-01-10T05:08:02.808Z,302.50
2023-01-10T05:10:32.042Z,308.48
2023-01-10T05:13:01.172Z,305.15
2023-01-10T05:15:30.161Z,299.67
2023-01-10T05:18:01.132Z,301.92
2023-01-10T05:20:30.166Z,299.92
2023-01-10T05:22:58.919Z,286.52
2023-01-10T05:25:28.406Z,279.20
2023-01-10T05:27:57.116Z,279.05
2023-01-10T05:30:26.436Z,275.35
2023-01-10T05:32:55.429Z,286.63
2023-01-10T05:35:24.352Z,275.88
2023-01-10T05:37:54.069Z,276.33
2023-01-10T05:40:23.121Z,293.70
2023-01-10T05:42:51.948Z,291.10
2023-01-10T05:45:21.172Z,301.75
2023-01-10T05:47:51.051Z,257.77
2023-01-10T05:50:20.144Z,246.35
2023-01-10T05:52:49.549Z,252.07
2023-01-10T05:55:19.090Z,250.73
2023-01-10T05:57:48.124Z,247.27
2023-01-10T06:00:17.868Z,260.25
2023-01-10T06:02:47.481Z,246.30
2023-01-10T06:05:16.742Z,273.58
2023-01-10T06:07:45.587Z,270.77
2023-01-10T06:10:14.483Z,274.05
2023-01-10T06:12:43.708Z,278.83
2023-01-10T06:15:13.192Z,281.83
2023-01-10T06:17:41.989Z,278.80
2023-01-10T06:20:12.420Z,283.98
2023-01-10T06:25:30.602Z,291.25
2023-01-10T06:28:00.543Z,289.35
2023-01-10T06:30:29.356Z,297.52
2023-01-10T06:33:03.630Z,283.75
2023-01-10T06:35:33.517Z,296.05
2023-01-10T06:38:02.675Z,290.45
2023-01-10T06:40:32.158Z,296.75
2023-01-10T06:43:01.348Z,296.27
2023-01-10T06:45:30.470Z,311.42
2023-01-10T06:47:59.971Z,319.50
2023-01-10T06:50:29.376Z,327.23
2023-01-10T06:53:00.316Z,334.15
2023-01-10T06:55:30.674Z,336.85
2023-01-10T06:58:05.935Z,334.80
2023-01-10T07:00:35.375Z,352.23
2023-01-10T07:03:04.565Z,357.27
2023-01-10T07:05:35.163Z,373.92
2023-01-10T07:08:04.836Z,383.33
2023-01-10T07:10:33.618Z,365.98
2023-01-10T07:13:02.741Z,367.05
2023-01-10T07:15:32.051Z,357.33
2023-01-10T07:18:01.486Z,350.85
2023-01-10T07:20:30.610Z,328.98
2023-01-10T07:23:03.399Z,331.80
2023-01-10T07:25:32.390Z,306.38
2023-01-10T07:28:01.265Z,301.15
2023-01-10T07:30:30.846Z,284.67
2023-01-10T07:33:02.147Z,265.67
2023-01-10T07:35:32.009Z,252.25
2023-01-10T07:38:02.198Z,228.77
2023-01-10T07:40:31.247Z,231.68
2023-01-10T07:43:02.884Z,222.75
2023-01-10T07:45:32.861Z,222.43
2023-01-10T07:48:04.974Z,216.13
2023-01-10T07:50:36.773Z,215.63
2023-01-10T07:53:08.964Z,204.02
2023-01-10T07:55:40.657Z,213.57
2023-01-10T07:58:10.454Z,211.00
2023-01-10T08:00:39.523Z,209.68
2023-01-10T08:03:08.705Z,210.68
2023-01-10T08:05:38.108Z,207.32
2023-01-10T08:08:11.452Z,171.45
2023-01-10T08:10:42.144Z,167.10
2023-01-10T08:13:18.876Z,167.75
2023-01-10T08:15:53.723Z,160.13
2023-01-10T08:18:24.884Z,156.02
2023-01-10T08:20:55.906Z,155.52
2023-01-10T08:23:25.408Z,149.38
2023-01-10T08:25:55.536Z,149.65
2023-01-10T08:28:24.842Z,153.95
2023-01-10T08:30:56.689Z,143.77
2023-01-10T08:35:55.642Z,135.68
2023-01-10T08:38:24.666Z,139.10
2023-01-10T08:40:53.610Z,142.43
2023-01-10T08:43:22.708Z,135.85
2023-01-10T08:45:52.028Z,137.57
2023-01-10T08:48:21.004Z,134.15
2023-01-10T08:50:50.206Z,132.23
2023-01-10T08:53:19.074Z,136.88
2023-01-10T08:55:49.786Z,135.77
2023-01-10T08:58:18.959Z,135.93
2023-01-10T09:00:48.352Z,129.48
2023-01-10T09:03:17.423Z,129.05
2023-01-10T09:05:46.931Z,131.52
2023-01-10T09:08:15.898Z,130.00
2023-01-10T09:10:45.223Z,131.52
2023-01-10T09:13:14.515Z,126.68
2023-01-10T09:15:44.378Z,130.25
2023-01-10T09:18:15.822Z,124.40
2023-01-10T09:20:44.744Z,121.65
2023-01-10T09:23:21.467Z,117.32
2023-01-10T09:25:53.387Z,114.30
2023-01-10T09:28:30.182Z,112.53
2023-01-10T09:30:59.555Z,118.82
2023-01-10T09:33:35.134Z,118.97
2023-01-10T09:36:16.365Z,110.25
2023-01-10T09:38:46.482Z,105.25
2023-01-10T09:41:34.684Z,111.72
2023-01-10T09:44:20.011Z,115.95
2023-01-10T09:47:27.113Z,113.65
2023-01-10T09:50:11.184Z,115.22
2023-01-10T09:52:46.562Z,133.88
2023-01-10T09:55:32.523Z,139.18
2023-01-10T09:58:07.733Z,137.68
2023-01-10T10:00:48.782Z,135.55
2023-01-10T10:03:40.133Z,143.75
2023-01-10T10:06:15.954Z,138.82
2023-01-10T10:08:48.193Z,139.85
2023-01-10T10:11:41.058Z,145.32
2023-01-10T10:14:21.101Z,140.23
2023-01-10T10:16:56.213Z,150.10
2023-01-10T10:19:56.155Z,149.57
2023-01-10T10:22:33.570Z,142.57
2023-01-10T10:25:47.438Z,136.15
2023-01-10T10:28:54.694Z,142.48
2023-01-10T10:31:57.693Z,140.30
2023-01-10T10:34:37.703Z,132.63
2023-01-10T10:37:16.636Z,134.23
2023-01-10T10:40:06.457Z,147.45
2023-01-10T10:42:43.357Z,163.30
2023-01-10T10:45:18.592Z,160.45
2023-01-10T10:47:55.004Z,161.77
2023-01-10T10:50:35.016Z,162.82
2023-01-10T10:53:06.259Z,168.40
2023-01-10T10:55:39.994Z,162.13
2023-01-10T10:58:12.172Z,157.48
2023-01-10T11:00:42.770Z,154.70
2023-01-10T11:03:40.057Z,160.68
2023-01-10T11:06:11.292Z,164.82
2023-01-10T11:08:44.572Z,162.82
2023-01-10T11:11:18.281Z,164.70
2023-01-10T11:13:49.599Z,167.02
2023-01-10T11:16:40.762Z,162.30
2023-01-10T11:19:10.321Z,163.63
2023-01-10T11:21:42.188Z,167.68
2023-01-10T11:24:28.642Z,173.35
2023-01-10T11:27:00.297Z,169.10
2023-01-10T11:29:29.770Z,172.93
2023-01-10T11:32:00.769Z,182.52
2023-01-10T11:34:37.639Z,185.85
2023-01-10T11:37:25.943Z,175.25
2023-01-10T11:40:36.381Z,193.02
2023-01-10T11:43:40.618Z,223.07
2023-01-10T11:49:20.371Z,220.20
2023-01-10T11:51:53.252Z,227.55
2023-01-10T11:54:28.735Z,228.27
2023-01-10T11:57:08.745Z,239.77
2023-01-10T11:59:39.993Z,231.35
2023-01-10T12:02:30.782Z,233.68
2023-01-10T12:05:03.041Z,225.35
2023-01-10T12:07:32.428Z,227.38
2023-01-10T12:10:03.570Z,221.98
2023-01-10T12:12:40.143Z,219.52
2023-01-10T12:15:27.078Z,216.20
2023-01-10T12:18:06.833Z,217.55
2023-01-10T12:20:56.337Z,220.02
2023-01-10T12:23:28.366Z,218.25
2023-01-10T12:26:11.364Z,215.43
2023-01-10T12:28:45.877Z,209.75
2023-01-10T12:31:16.587Z,210.60
2023-01-10T12:33:56.927Z,217.55
2023-01-10T12:36:58.036Z,213.07
2023-01-10T12:39:38.715Z,211.75
2023-01-10T12:42:29.186Z,214.18
2023-01-10T12:45:10.377Z,214.07
2023-01-10T12:48:14.326Z,207.02
2023-01-10T12:50:47.988Z,215.30
2023-01-10T12:53:37.536Z,220.00
2023-01-10T12:56:13.179Z,212.38
2023-01-10T12:58:56.263Z,208.13
2023-01-10T13:01:43.540Z,211.65
2023-01-10T13:04:20.210Z,209.60
2023-01-10T13:06:50.440Z,216.48
2023-01-10T13:09:22.995Z,205.85
2023-01-10T13:12:15.955Z,205.45
2023-01-10T13:15:06.549Z,202.70
2023-01-10T13:17:35.983Z,206.07
2023-01-10T13:20:23.383Z,211.45
2023-01-10T13:22:56.736Z,208.60
2023-01-10T13:25:40.367Z,201.77
2023-01-10T13:28:24.023Z,198.45
2023-01-10T13:30:59.789Z,198.52
2023-01-10T13:33:52.608Z,200.52
2023-01-10T13:36:42.395Z,196.82
2023-01-10T13:39:36.478Z,192.55
2023-01-10T13:42:23.916Z,194.10
2023-01-10T13:45:05.135Z,191.88
2023-01-10T13:47:49.206Z,192.63
2023-01-10T13:50:29.522Z,196.52
2023-01-10T13:53:13.364Z,197.05
2023-01-10T13:55:47.539Z,193.05
2023-01-10T13:58:16.888Z,198.77
2023-01-10T14:01:06.527Z,193.93
2023-01-10T14:03:45.101Z,184.32
2023-01-10T14:06:18.068Z,189.15
2023-01-10T14:08:55.838Z,192.18
2023-01-10T14:11:28.768Z,191.18
2023-01-10T14:14:02.927Z,188.45
2023-01-10T14:16:45.005Z,187.00
2023-01-10T14:19:33.634Z,185.38
2023-01-10T14:22:22.444Z,185.27
2023-01-10T14:24:54.031Z,182.02
2023-01-10T14:27:24.128Z,185.50
2023-01-10T14:29:58.536Z,183.40
2023-01-10T14:32:44.721Z,179.25
2023-01-10T14:38:40.787Z,185.57
2023-01-10T14:41:22.801Z,185.45
2023-01-10T14:44:18.498Z,188.93
2023-01-10T14:46:53.543Z,198.68
2023-01-10T14:49:36.847Z,227.60
2023-01-10T14:52:17.416Z,240.15
2023-01-10T14:54:47.355Z,227.95
2023-01-10T14:57:22.929Z,231.93
2023-01-10T15:00:03.633Z,228.27
2023-01-10T15:02:34.059Z,226.40
2023-01-10T15:05:27.518Z,215.38
2023-01-10T15:08:15.481Z,213.55
2023-01-10T15:10:48.135Z,215.63
2023-01-10T15:13:19.915Z,218.65
2023-01-10T15:15:51.871Z,204.57
2023-01-10T15:21:23.303Z,206.48
2023-01-10T15:24:35.034Z,204.07
2023-01-10T15:27:14.314Z,196.30
2023-01-10T15:29:45.622Z,202.60
2023-01-10T15:32:35.996Z,204.77
2023-01-10T15:37:57.000Z,202.27
2023-01-10T15:40:32.709Z,212.93
2023-01-10T15:43:24.533Z,198.07
2023-01-10T15:45:57.131Z,205.15
2023-01-10T15:48:38.043Z,208.88
2023-01-10T15:51:26.363Z,208.82
2023-01-10T15:54:07.077Z,208.45
2023-01-10T15:56:40.439Z,208.50
2023-01-10T15:59:29.331Z,203.52
2023-01-10T16:02:18.411Z,212.10
2023-01-10T16:04:49.317Z,204.60
2023-01-10T16:07:28.153Z,203.60
2023-01-10T16:10:08.035Z,209.77
2023-01-10T16:13:00.459Z,202.20
2023-01-10T16:15:32.230Z,204.50
2023-01-10T16:18:01.313Z,204.73
2023-01-10T16:20:46.042Z,209.85
2023-01-10T16:23:29.058Z,201.63
2023-01-10T16:26:01.343Z,193.90
2023-01-10T16:28:34.182Z,197.95
2023-01-10T16:31:07.841Z,197.05
2023-01-10T16:33:38.588Z,196.88
2023-01-10T16:36:18.945Z,199.18
2023-01-10T16:41:51.464Z,197.93
2023-01-10T16:44:20.653Z,193.18
2023-01-10T16:46:50.234Z,191.10
2023-01-10T16:49:19.184Z,193.18
2023-01-10T16:51:48.950Z,196.60
2023-01-10T16:54:23.332Z,194.63
2023-01-10T16:56:52.777Z,194.70
2023-01-10T16:59:54.097Z,197.05
2023-01-10T17:02:40.123Z,190.68
2023-01-10T17:05:10.095Z,193.90
2023-01-10T17:07:39.674Z,185.10
2023-01-10T17:10:09.514Z,188.80
2023-01-10T17:12:41.005Z,184.95
2023-01-10T17:15:15.707Z,195.02
2023-01-10T17:17:46.134Z,197.98
2023-01-10T17:20:18.914Z,195.73
2023-01-10T17:22:49.717Z,187.32
2023-01-10T17:25:19.865Z,197.30
2023-01-10T17:27:48.726Z,193.80
2023-01-10T17:30:18.565Z,191.43
2023-01-10T17:32:48.225Z,189.88
2023-01-10T17:35:18.260Z,190.63
2023-01-10T17:37:50.941Z,194.05
2023-01-10T17:40:22.578Z,191.82
2023-01-10T17:42:52.937Z,195.63
2023-01-10T17:45:22.528Z,189.40
2023-01-10T17:47:53.831Z,193.93
2023-01-10T17:50:22.988Z,193.03
2023-01-10T17:52:52.596Z,193.85
2023-01-10T17:55:22.143Z,200.80
2023-01-10T17:57:51.641Z,203.95
2023-01-10T18:00:21.282Z,205.38
2023-01-10T18:02:50.948Z,194.93
2023-01-10T18:05:20.335Z,207.52
2023-01-10T18:07:49.437Z,196.07
2023-01-10T18:10:18.600Z,200.77
2023-01-10T18:12:47.913Z,201.82
2023-01-10T18:15:17.096Z,197.32
2023-01-10T18:17:46.856Z,198.75
2023-01-10T18:20:15.692Z,199.10
2023-01-10T18:23:04.966Z,190.88
2023-01-10T18:25:34.313Z,190.73
2023-01-10T18:28:03.581Z,191.88
2023-01-10T18:30:33.007Z,193.70
2023-01-10T18:33:02.042Z,193.27
2023-01-10T18:35:31.411Z,184.45
2023-01-10T18:38:01.369Z,178.07
2023-01-10T18:40:30.501Z,183.68
2023-01-10T18:43:00.128Z,181.18
2023-01-10T18:45:31.501Z,175.10
2023-01-10T18:48:00.433Z,184.52
2023-01-10T18:50:29.505Z,181.60
2023-01-10T18:52:58.723Z,182.13
2023-01-10T18:55:27.784Z,173.52
2023-01-10T18:57:59.446Z,179.77
2023-01-10T19:00:29.023Z,180.80
2023-01-10T19:03:00.400Z,185.95
2023-01-10T19:05:30.035Z,185.10
2023-01-10T19:07:59.247Z,190.35
2023-01-10T19:10:29.049Z,189.93
2023-01-10T19:13:00.570Z,184.80
2023-01-10T19:15:29.660Z,181.95
2023-01-10T19:17:58.620Z,182.80
2023-01-10T19:20:27.842Z,183.65
2023-01-10T19:22:57.223Z,185.80
2023-01-10T19:25:26.491Z,179.38
2023-01-10T19:27:55.791Z,182.43
2023-01-10T19:30:24.862Z,186.48
2023-01-10T19:32:54.105Z,177.10
2023-01-10T19:35:23.118Z,172.13
2023-01-10T19:37:52.287Z,173.63
2023-01-10T19:40:21.636Z,166.63
2023-01-10T19:42:50.946Z,164.13
2023-01-10T19:45:20.153Z,164.82
2023-01-10T19:47:50.125Z,157.50
2023-01-10T19:50:19.142Z,162.88
2023-01-10T19:52:48.273Z,161.02
2023-01-10T19:55:17.943Z,154.98
2023-01-10T19:57:47.114Z,155.05
2023-01-10T20:00:16.381Z,151.57
2023-01-10T20:02:45.848Z,148.38
2023-01-10T20:05:15.256Z,147.98
2023-01-10T20:07:44.128Z,146.02
2023-01-10T20:10:13.136Z,142.20
2023-01-10T20:12:42.427Z,137.65
2023-01-10T20:15:12.300Z,132.85
2023-01-10T20:17:41.951Z,136.25
2023-01-10T20:20:11.763Z,134.52
2023-01-10T20:22:40.707Z,132.68
2023-01-10T20:25:10.126Z,132.90
2023-01-10T20:27:38.966Z,132.95
2023-01-10T20:30:09.765Z,134.10
2023-01-10T20:32:39.874Z,124.63
2023-01-10T20:35:09.014Z,127.00
2023-01-10T20:37:37.946Z,133.23
2023-01-10T20:40:10.726Z,131.30
2023-01-10T20:42:40.921Z,129.65
2023-01-10T20:45:11.017Z,128.05
2023-01-10T20:47:39.659Z,125.47
2023-01-10T20:50:10.079Z,127.72
2023-01-10T20:52:39.217Z,124.97
2023-01-10T20:55:08.620Z,128.60
2023-01-10T20:57:38.245Z,122.03
2023-01-10T21:00:07.651Z,122.43
2023-01-10T21:02:37.406Z,122.82
2023-01-10T21:05:06.718Z,121.88
2023-01-10T21:07:35.975Z,122.50
2023-01-10T21:10:05.534Z,127.88
2023-01-10T21:12:35.465Z,129.95
2023-01-10T21:15:05.023Z,141.95
2023-01-10T21:17:34.227Z,125.72
2023-01-10T21:20:03.271Z,124.40
2023-01-10T21:22:32.741Z,123.00
2023-01-10T21:25:02.164Z,124.60
2023-01-10T21:27:32.311Z,126.32
2023-01-10T21:30:02.737Z,123.43
2023-01-10T21:32:31.591Z,121.93
2023-01-10T21:35:00.680Z,121.75
2023-01-10T21:37:30.163Z,125.32
2023-01-10T21:40:00.536Z,121.75
2023-01-10T21:42:35.556Z,123.30
2023-01-10T21:45:06.225Z,115.93
2023-01-10T21:47:37.248Z,118.40
2023-01-10T21:50:14.758Z,120.07
2023-01-10T21:52:44.844Z,118.95
2023-01-10T21:55:17.263Z,122.43
2023-01-10T21:57:46.600Z,119.70
2023-01-10T22:00:15.927Z,123.15
2023-01-10T22:02:45.215Z,121.25
2023-01-10T22:05:13.900Z,120.50
2023-01-10T22:07:42.879Z,117.72
2023-01-10T22:10:12.402Z,120.72
2023-01-10T22:12:41.721Z,122.07
2023-01-10T22:15:11.337Z,121.47
2023-01-10T22:17:40.681Z,119.65
2023-01-10T22:20:12.760Z,122.03
2023-01-10T22:22:42.378Z,121.88
2023-01-10T22:25:11.266Z,124.72
2023-01-10T22:27:40.353Z,121.15
2023-01-10T22:30:10.201Z,121.97
2023-01-10T22:32:39.343Z,120.15
2023-01-10T22:35:08.567Z,125.47
2023-01-10T22:37:37.591Z,125.55
2023-01-10T22:40:06.834Z,125.38
2023-01-10T22:42:36.127Z,123.13
2023-01-10T22:45:05.593Z,120.85
2023-01-10T22:47:34.643Z,118.85
2023-01-10T22:50:03.811Z,121.22
2023-01-10T22:52:33.450Z,124.45
2023-01-10T22:55:02.546Z,126.50
2023-01-10T22:57:33.162Z,127.38
2023-01-10T23:00:02.611Z,124.82
2023-01-10T23:02:31.642Z,123.90
2023-01-10T23:05:00.747Z,131.18
2023-01-10T23:07:30.415Z,124.22
2023-01-10T23:09:59.686Z,125.72
2023-01-10T23:12:28.985Z,119.80
2023-01-10T23:14:58.184Z,125.85
2023-01-10T23:17:27.544Z,130.50
2023-01-10T23:19:56.944Z,128.82
2023-01-10T23:22:26.596Z,124.18
2023-01-10T23:24:55.762Z,124.25
2023-01-10T23:27:24.901Z,121.90
2023-01-10T23:29:53.954Z,123.60
2023-01-10T23:32:23.261Z,125.75
2023-01-10T23:34:52.303Z,124.25
2023-01-10T23:37:21.283Z,125.22
2023-01-10T23:39:50.268Z,125.30
2023-01-10T23:42:19.391Z,129.50
2023-01-10T23:44:48.616Z,127.38
2023-01-10T23:47:17.813Z,130.90
2023-01-10T23:49:46.952Z,130.90
2023-01-10T23:52:15.973Z,131.35
2023-01-10T23:54:44.852Z,133.38
2023-01-10T23:57:13.956Z,122.70
2023-01-10T23:59:42.925Z,130.75
